sensor_id;sensor_type;location;lat;lon;timestamp;temperature;humidity
28767;DHT22;15921;52.034;20.650;2023-07-20T00:00:53;17.50;91.70
28767;DHT22;15921;52.034;20.650;2023-07-20T00:03:20;17.40;91.70
28767;DHT22;15921;52.034;20.650;2023-07-20T00:05:50;17.50;91.80
28767;DHT22;15921;52.034;20.650;2023-07-20T00:08:17;17.40;92.00
28767;DHT22;15921;52.034;20.650;2023-07-20T00:10:43;17.40;92.20
28767;DHT22;15921;52.034;20.650;2023-07-20T00:13:12;17.40;92.30
28767;DHT22;15921;52.034;20.650;2023-07-20T00:15:38;17.40;92.50
28767;DHT22;15921;52.034;20.650;2023-07-20T00:18:04;17.30;92.70
28767;DHT22;15921;52.034;20.650;2023-07-20T00:20:30;17.30;92.90
28767;DHT22;15921;52.034;20.650;2023-07-20T00:22:57;17.20;93.40
28767;DHT22;15921;52.034;20.650;2023-07-20T00:25:26;17.10;94.00
28767;DHT22;15921;52.034;20.650;2023-07-20T00:27:51;17.00;94.60
28767;DHT22;15921;52.034;20.650;2023-07-20T00:30:18;17.00;95.50
28767;DHT22;15921;52.034;20.650;2023-07-20T00:32:44;17.00;95.80
28767;DHT22;15921;52.034;20.650;2023-07-20T00:35:10;17.00;96.30
28767;DHT22;15921;52.034;20.650;2023-07-20T00:37:37;16.90;96.90
28767;DHT22;15921;52.034;20.650;2023-07-20T00:40:03;16.90;97.60
28767;DHT22;15921;52.034;20.650;2023-07-20T00:42:33;16.80;98.20
28767;DHT22;15921;52.034;20.650;2023-07-20T00:44:59;16.80;98.90
28767;DHT22;15921;52.034;20.650;2023-07-20T00:47:25;16.90;99.50
28767;DHT22;15921;52.034;20.650;2023-07-20T00:49:51;16.80;99.90
28767;DHT22;15921;52.034;20.650;2023-07-20T00:52:19;16.90;99.90
28767;DHT22;15921;52.034;20.650;2023-07-20T00:54:46;16.90;99.90
28767;DHT22;15921;52.034;20.650;2023-07-20T00:57:14;16.90;99.90
28767;DHT22;15921;52.034;20.650;2023-07-20T00:59:40;16.90;99.90
28767;DHT22;15921;52.034;20.650;2023-07-20T01:02:06;16.90;99.90
28767;DHT22;15921;52.034;20.650;2023-07-20T01:04:32;16.90;99.90
28767;DHT22;15921;52.034;20.650;2023-07-20T01:09:48;16.80;99.90
28767;DHT22;15921;52.034;20.650;2023-07-20T01:12:25;16.70;99.90
28767;DHT22;15921;52.034;20.650;2023-07-20T01:14:52;16.70;99.90
28767;DHT22;15921;52.034;20.650;2023-07-20T01:17:18;16.50;99.90
28767;DHT22;15921;52.034;20.650;2023-07-20T01:19:43;16.40;99.90
28767;DHT22;15921;52.034;20.650;2023-07-20T01:27:42;16.00;99.90
28767;DHT22;15921;52.034;20.650;2023-07-20T01:32:57;15.70;99.90
28767;DHT22;15921;52.034;20.650;2023-07-20T01:35:27;15.60;99.90
28767;DHT22;15921;52.034;20.650;2023-07-20T01:37:54;15.60;99.90
28767;DHT22;15921;52.034;20.650;2023-07-20T01:40:20;15.50;99.90
28767;DHT22;15921;52.034;20.650;2023-07-20T01:42:47;15.50;99.90
28767;DHT22;15921;52.034;20.650;2023-07-20T01:45:13;15.40;99.90
28767;DHT22;15921;52.034;20.650;2023-07-20T01:47:39;15.30;99.90
28767;DHT22;15921;52.034;20.650;2023-07-20T01:50:06;15.30;99.90
28767;DHT22;15921;52.034;20.650;2023-07-20T01:52:32;15.30;99.90
28767;DHT22;15921;52.034;20.650;2023-07-20T01:54:57;15.30;99.90
28767;DHT22;15921;52.034;20.650;2023-07-20T01:57:23;15.30;99.90
28767;DHT22;15921;52.034;20.650;2023-07-20T01:59:49;15.30;99.90
28767;DHT22;15921;52.034;20.650;2023-07-20T02:02:14;15.20;99.90
28767;DHT22;15921;52.034;20.650;2023-07-20T02:04:40;15.30;99.90
28767;DHT22;15921;52.034;20.650;2023-07-20T02:07:06;15.30;99.90
28767;DHT22;15921;52.034;20.650;2023-07-20T02:09:31;15.40;99.90
28767;DHT22;15921;52.034;20.650;2023-07-20T02:11:57;15.40;99.90
28767;DHT22;15921;52.034;20.650;2023-07-20T02:14:23;15.50;99.90
28767;DHT22;15921;52.034;20.650;2023-07-20T02:16:49;15.60;99.90
28767;DHT22;15921;52.034;20.650;2023-07-20T02:19:18;15.60;99.90
28767;DHT22;15921;52.034;20.650;2023-07-20T02:21:44;15.70;99.90
28767;DHT22;15921;52.034;20.650;2023-07-20T02:24:10;15.70;99.90
28767;DHT22;15921;52.034;20.650;2023-07-20T02:26:35;15.70;99.90
28767;DHT22;15921;52.034;20.650;2023-07-20T02:29:01;15.70;99.90
28767;DHT22;15921;52.034;20.650;2023-07-20T02:31:30;15.70;99.90
28767;DHT22;15921;52.034;20.650;2023-07-20T02:33:56;15.70;99.90
28767;DHT22;15921;52.034;20.650;2023-07-20T02:36:22;15.80;99.90
28767;DHT22;15921;52.034;20.650;2023-07-20T02:38:47;15.80;99.90
28767;DHT22;15921;52.034;20.650;2023-07-20T02:41:14;15.70;99.90
28767;DHT22;15921;52.034;20.650;2023-07-20T02:43:39;15.80;99.90
28767;DHT22;15921;52.034;20.650;2023-07-20T02:46:05;15.80;99.90
28767;DHT22;15921;52.034;20.650;2023-07-20T02:48:31;15.80;99.90
28767;DHT22;15921;52.034;20.650;2023-07-20T02:50:56;15.70;99.90
28767;DHT22;15921;52.034;20.650;2023-07-20T02:53:22;15.70;99.90
28767;DHT22;15921;52.034;20.650;2023-07-20T02:55:48;15.70;99.90
28767;DHT22;15921;52.034;20.650;2023-07-20T02:58:13;15.70;99.90
28767;DHT22;15921;52.034;20.650;2023-07-20T03:00:39;15.70;99.90
28767;DHT22;15921;52.034;20.650;2023-07-20T03:03:04;15.60;99.90
28767;DHT22;15921;52.034;20.650;2023-07-20T03:05:35;15.50;99.90
28767;DHT22;15921;52.034;20.650;2023-07-20T03:08:01;15.50;99.90
28767;DHT22;15921;52.034;20.650;2023-07-20T03:10:28;15.60;99.90
28767;DHT22;15921;52.034;20.650;2023-07-20T03:12:54;15.60;99.90
28767;DHT22;15921;52.034;20.650;2023-07-20T03:15:20;15.60;99.90
28767;DHT22;15921;52.034;20.650;2023-07-20T03:17:45;15.60;99.90
28767;DHT22;15921;52.034;20.650;2023-07-20T03:20:11;15.60;99.90
28767;DHT22;15921;52.034;20.650;2023-07-20T03:22:38;15.60;99.90
28767;DHT22;15921;52.034;20.650;2023-07-20T03:25:04;15.70;99.90
28767;DHT22;15921;52.034;20.650;2023-07-20T03:27:30;15.70;99.90
28767;DHT22;15921;52.034;20.650;2023-07-20T03:29:56;15.80;99.90
28767;DHT22;15921;52.034;20.650;2023-07-20T03:32:21;15.80;99.90
28767;DHT22;15921;52.034;20.650;2023-07-20T03:34:47;15.80;99.90
28767;DHT22;15921;52.034;20.650;2023-07-20T03:37:13;15.90;99.90
28767;DHT22;15921;52.034;20.650;2023-07-20T03:39:38;16.00;99.90
28767;DHT22;15921;52.034;20.650;2023-07-20T03:42:04;15.90;99.90
28767;DHT22;15921;52.034;20.650;2023-07-20T03:44:31;15.90;99.90
28767;DHT22;15921;52.034;20.650;2023-07-20T03:46:57;15.90;99.90
28767;DHT22;15921;52.034;20.650;2023-07-20T03:49:23;15.80;99.90
28767;DHT22;15921;52.034;20.650;2023-07-20T03:51:48;15.80;99.90
28767;DHT22;15921;52.034;20.650;2023-07-20T03:54:14;15.80;99.90
28767;DHT22;15921;52.034;20.650;2023-07-20T03:56:40;15.80;99.90
28767;DHT22;15921;52.034;20.650;2023-07-20T03:59:05;15.80;99.90
28767;DHT22;15921;52.034;20.650;2023-07-20T04:01:31;15.90;99.90
28767;DHT22;15921;52.034;20.650;2023-07-20T04:04:05;15.90;99.90
28767;DHT22;15921;52.034;20.650;2023-07-20T04:06:31;15.90;99.90
28767;DHT22;15921;52.034;20.650;2023-07-20T04:08:57;16.00;99.90
28767;DHT22;15921;52.034;20.650;2023-07-20T04:11:22;16.10;99.90
28767;DHT22;15921;52.034;20.650;2023-07-20T04:13:48;16.10;99.90
28767;DHT22;15921;52.034;20.650;2023-07-20T04:16:14;16.10;99.90
28767;DHT22;15921;52.034;20.650;2023-07-20T04:18:39;16.10;99.90
28767;DHT22;15921;52.034;20.650;2023-07-20T04:21:07;16.10;99.90
28767;DHT22;15921;52.034;20.650;2023-07-20T04:23:33;16.20;99.90
28767;DHT22;15921;52.034;20.650;2023-07-20T04:25:59;16.20;99.90
28767;DHT22;15921;52.034;20.650;2023-07-20T04:28:24;16.10;99.90
28767;DHT22;15921;52.034;20.650;2023-07-20T04:30:50;16.20;99.90
28767;DHT22;15921;52.034;20.650;2023-07-20T04:33:16;16.20;99.90
28767;DHT22;15921;52.034;20.650;2023-07-20T04:35:54;16.30;99.90
28767;DHT22;15921;52.034;20.650;2023-07-20T04:38:20;16.40;99.90
28767;DHT22;15921;52.034;20.650;2023-07-20T04:40:48;16.50;99.90
28767;DHT22;15921;52.034;20.650;2023-07-20T04:43:14;16.60;99.90
28767;DHT22;15921;52.034;20.650;2023-07-20T04:45:40;16.60;99.90
28767;DHT22;15921;52.034;20.650;2023-07-20T04:48:16;16.70;99.90
28767;DHT22;15921;52.034;20.650;2023-07-20T04:50:43;16.80;99.90
28767;DHT22;15921;52.034;20.650;2023-07-20T04:53:09;16.80;99.90
28767;DHT22;15921;52.034;20.650;2023-07-20T04:55:39;16.80;99.90
28767;DHT22;15921;52.034;20.650;2023-07-20T04:58:05;16.80;99.90
28767;DHT22;15921;52.034;20.650;2023-07-20T05:00:33;16.80;99.90
28767;DHT22;15921;52.034;20.650;2023-07-20T05:02:59;16.70;99.90
28767;DHT22;15921;52.034;20.650;2023-07-20T05:05:24;16.70;99.90
28767;DHT22;15921;52.034;20.650;2023-07-20T05:07:50;16.70;99.90
28767;DHT22;15921;52.034;20.650;2023-07-20T05:10:16;16.70;99.90
28767;DHT22;15921;52.034;20.650;2023-07-20T05:12:42;16.70;99.90
28767;DHT22;15921;52.034;20.650;2023-07-20T05:15:08;16.70;99.90
28767;DHT22;15921;52.034;20.650;2023-07-20T05:17:34;16.70;99.90
28767;DHT22;15921;52.034;20.650;2023-07-20T05:19:59;16.70;99.90
28767;DHT22;15921;52.034;20.650;2023-07-20T05:22:25;16.70;99.90
28767;DHT22;15921;52.034;20.650;2023-07-20T05:24:51;16.70;99.90
28767;DHT22;15921;52.034;20.650;2023-07-20T05:27:17;16.70;99.90
28767;DHT22;15921;52.034;20.650;2023-07-20T05:29:46;16.70;99.90
28767;DHT22;15921;52.034;20.650;2023-07-20T05:32:15;16.60;99.90
28767;DHT22;15921;52.034;20.650;2023-07-20T05:34:40;16.60;99.90
28767;DHT22;15921;52.034;20.650;2023-07-20T05:37:06;16.60;99.90
28767;DHT22;15921;52.034;20.650;2023-07-20T05:39:33;16.50;99.90
28767;DHT22;15921;52.034;20.650;2023-07-20T05:41:59;16.40;99.90
28767;DHT22;15921;52.034;20.650;2023-07-20T05:44:24;16.40;99.90
28767;DHT22;15921;52.034;20.650;2023-07-20T05:46:50;16.50;99.90
28767;DHT22;15921;52.034;20.650;2023-07-20T05:49:16;16.50;99.90
28767;DHT22;15921;52.034;20.650;2023-07-20T05:51:41;16.60;99.90
28767;DHT22;15921;52.034;20.650;2023-07-20T05:54:07;16.60;99.90
28767;DHT22;15921;52.034;20.650;2023-07-20T05:56:33;16.70;99.90
28767;DHT22;15921;52.034;20.650;2023-07-20T05:58:59;16.70;99.90
28767;DHT22;15921;52.034;20.650;2023-07-20T06:01:25;16.80;99.90
28767;DHT22;15921;52.034;20.650;2023-07-20T06:03:53;16.80;99.90
28767;DHT22;15921;52.034;20.650;2023-07-20T06:06:19;16.90;99.90
28767;DHT22;15921;52.034;20.650;2023-07-20T06:08:44;17.00;99.90
28767;DHT22;15921;52.034;20.650;2023-07-20T06:11:11;17.10;99.90
28767;DHT22;15921;52.034;20.650;2023-07-20T06:13:36;17.20;99.90
28767;DHT22;15921;52.034;20.650;2023-07-20T06:16:03;17.30;99.90
28767;DHT22;15921;52.034;20.650;2023-07-20T06:18:29;17.40;99.90
28767;DHT22;15921;52.034;20.650;2023-07-20T06:20:56;17.50;99.90
28767;DHT22;15921;52.034;20.650;2023-07-20T06:23:22;17.70;99.90
28767;DHT22;15921;52.034;20.650;2023-07-20T06:25:48;17.80;99.90
28767;DHT22;15921;52.034;20.650;2023-07-20T06:28:14;17.90;99.90
28767;DHT22;15921;52.034;20.650;2023-07-20T06:30:40;18.10;99.90
28767;DHT22;15921;52.034;20.650;2023-07-20T06:33:06;18.10;99.90
28767;DHT22;15921;52.034;20.650;2023-07-20T06:35:32;18.10;99.90
28767;DHT22;15921;52.034;20.650;2023-07-20T06:37:58;18.00;99.90
28767;DHT22;15921;52.034;20.650;2023-07-20T06:40:25;18.00;99.90
28767;DHT22;15921;52.034;20.650;2023-07-20T06:42:51;18.00;99.90
28767;DHT22;15921;52.034;20.650;2023-07-20T06:45:17;18.10;99.90
28767;DHT22;15921;52.034;20.650;2023-07-20T06:47:42;18.10;99.90
28767;DHT22;15921;52.034;20.650;2023-07-20T06:50:09;18.20;99.90
28767;DHT22;15921;52.034;20.650;2023-07-20T06:52:35;18.30;99.90
28767;DHT22;15921;52.034;20.650;2023-07-20T06:55:01;18.30;99.90
28767;DHT22;15921;52.034;20.650;2023-07-20T06:57:27;18.20;99.90
28767;DHT22;15921;52.034;20.650;2023-07-20T06:59:53;18.20;99.90
28767;DHT22;15921;52.034;20.650;2023-07-20T07:02:20;18.30;99.90
28767;DHT22;15921;52.034;20.650;2023-07-20T07:04:46;18.20;99.90
28767;DHT22;15921;52.034;20.650;2023-07-20T07:07:14;18.20;99.90
28767;DHT22;15921;52.034;20.650;2023-07-20T07:09:41;18.10;99.90
28767;DHT22;15921;52.034;20.650;2023-07-20T07:12:07;18.20;99.90
28767;DHT22;15921;52.034;20.650;2023-07-20T07:14:32;18.20;99.90
28767;DHT22;15921;52.034;20.650;2023-07-20T07:16:58;18.10;99.90
28767;DHT22;15921;52.034;20.650;2023-07-20T07:19:24;18.10;99.90
28767;DHT22;15921;52.034;20.650;2023-07-20T07:21:50;18.00;99.90
28767;DHT22;15921;52.034;20.650;2023-07-20T07:24:16;18.00;99.90
28767;DHT22;15921;52.034;20.650;2023-07-20T07:26:42;17.90;99.90
28767;DHT22;15921;52.034;20.650;2023-07-20T07:29:08;17.90;99.90
28767;DHT22;15921;52.034;20.650;2023-07-20T07:31:34;17.90;99.90
28767;DHT22;15921;52.034;20.650;2023-07-20T07:34:04;18.00;99.90
28767;DHT22;15921;52.034;20.650;2023-07-20T07:36:31;18.00;99.90
28767;DHT22;15921;52.034;20.650;2023-07-20T07:38:57;18.10;99.90
28767;DHT22;15921;52.034;20.650;2023-07-20T07:41:22;18.30;99.90
28767;DHT22;15921;52.034;20.650;2023-07-20T07:43:48;18.40;99.90
28767;DHT22;15921;52.034;20.650;2023-07-20T07:46:14;18.50;99.90
28767;DHT22;15921;52.034;20.650;2023-07-20T07:48:40;18.40;99.90
28767;DHT22;15921;52.034;20.650;2023-07-20T07:51:05;18.30;99.90
28767;DHT22;15921;52.034;20.650;2023-07-20T07:53:32;18.20;99.90
28767;DHT22;15921;52.034;20.650;2023-07-20T07:55:58;18.00;99.90
28767;DHT22;15921;52.034;20.650;2023-07-20T07:58:24;17.90;99.90
28767;DHT22;15921;52.034;20.650;2023-07-20T08:00:49;17.90;99.90
28767;DHT22;15921;52.034;20.650;2023-07-20T08:03:15;17.80;99.90
28767;DHT22;15921;52.034;20.650;2023-07-20T08:05:41;17.90;99.90
28767;DHT22;15921;52.034;20.650;2023-07-20T08:08:07;17.90;99.90
28767;DHT22;15921;52.034;20.650;2023-07-20T08:10:34;17.90;99.90
28767;DHT22;15921;52.034;20.650;2023-07-20T08:13:00;17.90;99.90
28767;DHT22;15921;52.034;20.650;2023-07-20T08:15:25;17.90;99.90
28767;DHT22;15921;52.034;20.650;2023-07-20T08:17:51;18.00;99.90
28767;DHT22;15921;52.034;20.650;2023-07-20T08:20:18;18.00;99.90
28767;DHT22;15921;52.034;20.650;2023-07-20T08:22:43;18.10;99.90
28767;DHT22;15921;52.034;20.650;2023-07-20T08:25:09;18.10;99.90
28767;DHT22;15921;52.034;20.650;2023-07-20T08:27:37;18.10;99.90
28767;DHT22;15921;52.034;20.650;2023-07-20T08:30:03;18.20;99.90
28767;DHT22;15921;52.034;20.650;2023-07-20T08:32:30;18.40;99.90
28767;DHT22;15921;52.034;20.650;2023-07-20T08:34:55;18.60;99.90
28767;DHT22;15921;52.034;20.650;2023-07-20T08:37:21;18.60;99.90
28767;DHT22;15921;52.034;20.650;2023-07-20T08:39:47;18.70;99.90
28767;DHT22;15921;52.034;20.650;2023-07-20T08:42:14;18.70;99.90
28767;DHT22;15921;52.034;20.650;2023-07-20T08:44:42;18.70;99.90
28767;DHT22;15921;52.034;20.650;2023-07-20T08:47:09;18.50;99.90
28767;DHT22;15921;52.034;20.650;2023-07-20T08:49:36;18.40;99.90
28767;DHT22;15921;52.034;20.650;2023-07-20T08:52:05;18.50;99.90
28767;DHT22;15921;52.034;20.650;2023-07-20T08:54:31;18.50;99.90
28767;DHT22;15921;52.034;20.650;2023-07-20T08:57:03;18.60;99.90
28767;DHT22;15921;52.034;20.650;2023-07-20T08:59:30;18.70;99.90
28767;DHT22;15921;52.034;20.650;2023-07-20T09:02:00;18.70;99.90
28767;DHT22;15921;52.034;20.650;2023-07-20T09:04:26;18.60;99.90
28767;DHT22;15921;52.034;20.650;2023-07-20T09:06:52;18.70;99.90
28767;DHT22;15921;52.034;20.650;2023-07-20T09:09:18;18.60;99.90
28767;DHT22;15921;52.034;20.650;2023-07-20T09:11:47;18.80;99.90
28767;DHT22;15921;52.034;20.650;2023-07-20T09:14:13;19.30;99.90
28767;DHT22;15921;52.034;20.650;2023-07-20T09:16:52;19.90;99.90
28767;DHT22;15921;52.034;20.650;2023-07-20T09:19:18;20.80;99.90
28767;DHT22;15921;52.034;20.650;2023-07-20T09:21:46;21.70;99.90
28767;DHT22;15921;52.034;20.650;2023-07-20T09:24:12;22.30;99.90
28767;DHT22;15921;52.034;20.650;2023-07-20T09:26:42;22.60;99.90
28767;DHT22;15921;52.034;20.650;2023-07-20T09:29:09;22.90;99.90
28767;DHT22;15921;52.034;20.650;2023-07-20T09:31:35;23.10;99.90
28767;DHT22;15921;52.034;20.650;2023-07-20T09:34:01;23.20;99.90
28767;DHT22;15921;52.034;20.650;2023-07-20T09:36:27;23.10;99.90
28767;DHT22;15921;52.034;20.650;2023-07-20T09:38:53;23.00;99.90
28767;DHT22;15921;52.034;20.650;2023-07-20T09:41:20;23.00;99.90
28767;DHT22;15921;52.034;20.650;2023-07-20T09:43:46;23.50;99.90
28767;DHT22;15921;52.034;20.650;2023-07-20T09:46:12;23.80;99.50
28767;DHT22;15921;52.034;20.650;2023-07-20T09:48:39;24.00;98.00
28767;DHT22;15921;52.034;20.650;2023-07-20T09:51:06;23.90;97.30
28767;DHT22;15921;52.034;20.650;2023-07-20T09:53:33;23.80;96.90
28767;DHT22;15921;52.034;20.650;2023-07-20T09:55:59;23.60;96.90
28767;DHT22;15921;52.034;20.650;2023-07-20T09:58:26;23.30;96.80
28767;DHT22;15921;52.034;20.650;2023-07-20T10:00:54;23.00;97.10
28767;DHT22;15921;52.034;20.650;2023-07-20T10:03:28;22.60;97.00
28767;DHT22;15921;52.034;20.650;2023-07-20T10:06:00;22.40;97.60
28767;DHT22;15921;52.034;20.650;2023-07-20T10:08:30;22.80;97.50
28767;DHT22;15921;52.034;20.650;2023-07-20T10:10:59;23.40;96.70
28767;DHT22;15921;52.034;20.650;2023-07-20T10:13:29;23.90;95.40
28767;DHT22;15921;52.034;20.650;2023-07-20T10:18:31;24.10;93.70
28767;DHT22;15921;52.034;20.650;2023-07-20T10:21:00;24.00;93.50
28767;DHT22;15921;52.034;20.650;2023-07-20T10:23:29;24.10;93.30
28767;DHT22;15921;52.034;20.650;2023-07-20T10:25:56;24.20;92.80
28767;DHT22;15921;52.034;20.650;2023-07-20T10:28:23;24.10;92.20
28767;DHT22;15921;52.034;20.650;2023-07-20T10:30:50;24.00;92.40
28767;DHT22;15921;52.034;20.650;2023-07-20T10:33:17;23.90;92.20
28767;DHT22;15921;52.034;20.650;2023-07-20T10:35:53;24.00;92.40
28767;DHT22;15921;52.034;20.650;2023-07-20T10:38:19;23.90;92.60
28767;DHT22;15921;52.034;20.650;2023-07-20T10:40:54;23.70;92.60
28767;DHT22;15921;52.034;20.650;2023-07-20T10:43:20;23.80;92.50
28767;DHT22;15921;52.034;20.650;2023-07-20T10:45:53;23.80;92.40
28767;DHT22;15921;52.034;20.650;2023-07-20T10:48:23;24.10;92.30
28767;DHT22;15921;52.034;20.650;2023-07-20T10:51:11;24.30;92.30
28767;DHT22;15921;52.034;20.650;2023-07-20T10:53:38;24.70;91.20
28767;DHT22;15921;52.034;20.650;2023-07-20T10:56:11;24.90;91.10
28767;DHT22;15921;52.034;20.650;2023-07-20T10:58:38;25.00;90.10
28767;DHT22;15921;52.034;20.650;2023-07-20T11:01:04;24.90;90.00
28767;DHT22;15921;52.034;20.650;2023-07-20T11:03:37;24.70;89.70
28767;DHT22;15921;52.034;20.650;2023-07-20T11:08:55;24.70;90.40
28767;DHT22;15921;52.034;20.650;2023-07-20T11:11:32;24.70;90.30
28767;DHT22;15921;52.034;20.650;2023-07-20T11:14:03;24.70;89.20
28767;DHT22;15921;52.034;20.650;2023-07-20T11:21:50;24.00;89.30
28767;DHT22;15921;52.034;20.650;2023-07-20T11:24:16;23.90;89.60
28767;DHT22;15921;52.034;20.650;2023-07-20T11:26:49;23.70;89.70
28767;DHT22;15921;52.034;20.650;2023-07-20T11:29:22;23.50;89.30
28767;DHT22;15921;52.034;20.650;2023-07-20T11:31:49;23.20;90.10
28767;DHT22;15921;52.034;20.650;2023-07-20T11:34:16;23.00;90.50
28767;DHT22;15921;52.034;20.650;2023-07-20T11:36:43;22.90;90.90
28767;DHT22;15921;52.034;20.650;2023-07-20T11:39:13;23.00;91.20
28767;DHT22;15921;52.034;20.650;2023-07-20T11:41:44;22.90;91.70
28767;DHT22;15921;52.034;20.650;2023-07-20T11:44:11;22.80;92.30
28767;DHT22;15921;52.034;20.650;2023-07-20T11:46:39;22.90;92.90
28767;DHT22;15921;52.034;20.650;2023-07-20T11:49:05;23.20;93.10
28767;DHT22;15921;52.034;20.650;2023-07-20T11:51:32;23.60;93.30
28767;DHT22;15921;52.034;20.650;2023-07-20T11:53:58;24.10;93.00
28767;DHT22;15921;52.034;20.650;2023-07-20T11:56:25;24.40;92.80
28767;DHT22;15921;52.034;20.650;2023-07-20T11:58:54;24.30;92.50
28767;DHT22;15921;52.034;20.650;2023-07-20T12:01:21;24.20;92.10
28767;DHT22;15921;52.034;20.650;2023-07-20T12:03:48;24.10;92.00
28767;DHT22;15921;52.034;20.650;2023-07-20T12:06:14;24.10;92.30
28767;DHT22;15921;52.034;20.650;2023-07-20T12:08:44;24.10;92.00
28767;DHT22;15921;52.034;20.650;2023-07-20T12:11:10;24.00;92.50
28767;DHT22;15921;52.034;20.650;2023-07-20T12:13:43;23.80;92.30
28767;DHT22;15921;52.034;20.650;2023-07-20T12:16:14;23.60;92.20
28767;DHT22;15921;52.034;20.650;2023-07-20T12:18:41;23.50;92.70
28767;DHT22;15921;52.034;20.650;2023-07-20T12:21:07;23.30;92.50
28767;DHT22;15921;52.034;20.650;2023-07-20T12:23:41;23.10;92.50
28767;DHT22;15921;52.034;20.650;2023-07-20T12:26:09;23.10;92.10
28767;DHT22;15921;52.034;20.650;2023-07-20T12:28:40;23.00;92.00
28767;DHT22;15921;52.034;20.650;2023-07-20T12:31:07;23.10;91.80
28767;DHT22;15921;52.034;20.650;2023-07-20T12:33:33;23.30;91.50
28767;DHT22;15921;52.034;20.650;2023-07-20T12:36:00;23.80;91.00
28767;DHT22;15921;52.034;20.650;2023-07-20T12:38:26;24.30;90.50
28767;DHT22;15921;52.034;20.650;2023-07-20T12:40:53;24.40;90.00
28767;DHT22;15921;52.034;20.650;2023-07-20T12:43:21;24.30;89.80
28767;DHT22;15921;52.034;20.650;2023-07-20T12:45:47;24.20;89.70
28767;DHT22;15921;52.034;20.650;2023-07-20T12:48:12;24.10;89.90
28767;DHT22;15921;52.034;20.650;2023-07-20T12:50:38;24.20;88.70
28767;DHT22;15921;52.034;20.650;2023-07-20T12:53:04;24.10;89.00
28767;DHT22;15921;52.034;20.650;2023-07-20T12:55:30;24.30;89.10
28767;DHT22;15921;52.034;20.650;2023-07-20T12:57:55;24.90;87.50
28767;DHT22;15921;52.034;20.650;2023-07-20T13:00:21;25.60;85.90
28767;DHT22;15921;52.034;20.650;2023-07-20T13:02:53;25.70;84.70
28767;DHT22;15921;52.034;20.650;2023-07-20T13:05:18;25.80;84.10
28767;DHT22;15921;52.034;20.650;2023-07-20T13:07:44;27.10;81.90
28767;DHT22;15921;52.034;20.650;2023-07-20T13:10:11;29.60;77.10
28767;DHT22;15921;52.034;20.650;2023-07-20T13:12:38;33.10;68.40
28767;DHT22;15921;52.034;20.650;2023-07-20T13:15:05;35.30;60.80
28767;DHT22;15921;52.034;20.650;2023-07-20T13:17:35;35.60;56.90
28767;DHT22;15921;52.034;20.650;2023-07-20T13:20:02;37.10;53.90
28767;DHT22;15921;52.034;20.650;2023-07-20T13:22:30;35.60;53.30
28767;DHT22;15921;52.034;20.650;2023-07-20T13:24:56;33.10;55.60
28767;DHT22;15921;52.034;20.650;2023-07-20T13:27:21;31.30;58.40
28767;DHT22;15921;52.034;20.650;2023-07-20T13:29:47;29.90;61.50
28767;DHT22;15921;52.034;20.650;2023-07-20T13:32:14;28.90;64.10
28767;DHT22;15921;52.034;20.650;2023-07-20T13:34:46;28.10;66.40
28767;DHT22;15921;52.034;20.650;2023-07-20T13:37:12;27.60;67.00
28767;DHT22;15921;52.034;20.650;2023-07-20T13:39:38;27.10;68.20
28767;DHT22;15921;52.034;20.650;2023-07-20T13:42:05;26.50;70.30
28767;DHT22;15921;52.034;20.650;2023-07-20T13:44:32;26.10;72.30
28767;DHT22;15921;52.034;20.650;2023-07-20T13:46:58;25.80;73.20
28767;DHT22;15921;52.034;20.650;2023-07-20T13:49:24;25.40;74.40
28767;DHT22;15921;52.034;20.650;2023-07-20T13:51:49;25.00;75.60
28767;DHT22;15921;52.034;20.650;2023-07-20T13:54:15;24.60;77.10
28767;DHT22;15921;52.034;20.650;2023-07-20T13:56:41;24.20;78.10
28767;DHT22;15921;52.034;20.650;2023-07-20T13:59:06;23.80;79.60
28767;DHT22;15921;52.034;20.650;2023-07-20T14:01:32;23.50;80.80
28767;DHT22;15921;52.034;20.650;2023-07-20T14:04:00;23.20;81.60
28767;DHT22;15921;52.034;20.650;2023-07-20T14:06:29;22.80;82.80
28767;DHT22;15921;52.034;20.650;2023-07-20T14:08:54;22.50;84.00
28767;DHT22;15921;52.034;20.650;2023-07-20T14:11:20;22.30;85.10
28767;DHT22;15921;52.034;20.650;2023-07-20T14:13:46;22.10;86.10
28767;DHT22;15921;52.034;20.650;2023-07-20T14:16:11;21.90;87.00
28767;DHT22;15921;52.034;20.650;2023-07-20T14:18:37;21.90;87.90
28767;DHT22;15921;52.034;20.650;2023-07-20T14:21:03;21.80;87.70
28767;DHT22;15921;52.034;20.650;2023-07-20T14:23:30;21.70;88.10
28767;DHT22;15921;52.034;20.650;2023-07-20T14:25:56;21.70;88.60
28767;DHT22;15921;52.034;20.650;2023-07-20T14:28:22;21.50;89.00
28767;DHT22;15921;52.034;20.650;2023-07-20T14:30:47;21.40;89.60
28767;DHT22;15921;52.034;20.650;2023-07-20T14:33:13;21.40;90.20
28767;DHT22;15921;52.034;20.650;2023-07-20T14:35:39;21.50;90.20
28767;DHT22;15921;52.034;20.650;2023-07-20T14:38:04;21.70;90.20
28767;DHT22;15921;52.034;20.650;2023-07-20T14:40:30;22.20;89.50
28767;DHT22;15921;52.034;20.650;2023-07-20T14:42:56;24.50;85.60
28767;DHT22;15921;52.034;20.650;2023-07-20T14:45:22;27.80;77.20
28767;DHT22;15921;52.034;20.650;2023-07-20T14:47:50;29.10;72.20
28767;DHT22;15921;52.034;20.650;2023-07-20T14:50:20;30.90;67.00
28767;DHT22;15921;52.034;20.650;2023-07-20T14:52:46;31.00;65.50
28767;DHT22;15921;52.034;20.650;2023-07-20T14:55:12;31.80;63.90
28767;DHT22;15921;52.034;20.650;2023-07-20T14:57:37;32.80;61.10
28767;DHT22;15921;52.034;20.650;2023-07-20T15:00:04;33.50;59.70
28767;DHT22;15921;52.034;20.650;2023-07-20T15:02:36;34.30;57.90
28767;DHT22;15921;52.034;20.650;2023-07-20T15:05:02;34.90;54.00
28767;DHT22;15921;52.034;20.650;2023-07-20T15:07:29;36.10;54.60
28767;DHT22;15921;52.034;20.650;2023-07-20T15:09:54;37.20;52.30
28767;DHT22;15921;52.034;20.650;2023-07-20T15:12:20;37.90;50.00
28767;DHT22;15921;52.034;20.650;2023-07-20T15:17:29;40.00;46.90
28767;DHT22;15921;52.034;20.650;2023-07-20T15:19:55;40.60;46.00
28767;DHT22;15921;52.034;20.650;2023-07-20T15:22:21;40.80;44.60
28767;DHT22;15921;52.034;20.650;2023-07-20T15:24:47;40.80;44.10
28767;DHT22;15921;52.034;20.650;2023-07-20T15:27:13;40.50;43.50
28767;DHT22;15921;52.034;20.650;2023-07-20T15:29:39;39.90;43.60
28767;DHT22;15921;52.034;20.650;2023-07-20T15:32:05;39.50;44.10
28767;DHT22;15921;52.034;20.650;2023-07-20T15:34:31;38.70;44.40
28767;DHT22;15921;52.034;20.650;2023-07-20T15:36:57;38.10;45.10